createdAt,value
2019-05-18T00:03:19.718Z,13.22
2019-05-18T00:08:43.289Z,13.22
2019-05-18T00:14:06.609Z,13.07
2019-05-18T00:19:29.849Z,13.03
2019-05-18T00:24:52.984Z,13.00
2019-05-18T00:30:16.765Z,13.00
2019-05-18T00:35:39.991Z,13.01
2019-05-18T00:41:03.210Z,12.92
2019-05-18T00:46:26.397Z,12.84
2019-05-18T00:51:50.126Z,12.80
2019-05-18T00:57:13.304Z,12.76
2019-05-18T01:02:36.579Z,12.74
2019-05-18T01:08:00.165Z,12.71
2019-05-18T01:13:22.867Z,12.72
2019-05-18T01:18:45.641Z,12.42
2019-05-18T01:24:09.114Z,12.38
2019-05-18T01:29:32.220Z,12.25
2019-05-18T01:34:55.401Z,12.20
2019-05-18T01:40:19.086Z,12.35
2019-05-18T01:45:42.407Z,12.33
2019-05-18T01:51:19.338Z,12.33
2019-05-18T01:56:43.127Z,12.23
2019-05-18T02:02:05.792Z,12.18
2019-05-18T02:07:29.035Z,12.07
2019-05-18T02:12:52.622Z,12.11
2019-05-18T02:18:28.222Z,12.03
2019-05-18T02:23:40.169Z,12.09
2019-05-18T02:29:03.387Z,12.06
2019-05-18T02:34:26.873Z,11.79
2019-05-18T02:39:51.789Z,11.70
2019-05-18T02:45:14.550Z,11.70
2019-05-18T02:50:37.918Z,11.64
2019-05-18T02:56:00.985Z,11.55
2019-05-18T03:01:23.833Z,11.55
2019-05-18T03:06:46.834Z,11.74
2019-05-18T03:12:10.285Z,11.76
2019-05-18T03:17:33.483Z,11.80
2019-05-18T03:22:57.307Z,11.81
2019-05-18T03:28:20.561Z,11.83
2019-05-18T03:33:43.791Z,11.74
2019-05-18T03:39:07.444Z,11.73
2019-05-18T03:44:31.222Z,11.68
2019-05-18T03:49:54.597Z,11.69
2019-05-18T03:55:17.396Z,11.80
2019-05-18T04:00:40.224Z,11.71
2019-05-18T04:06:03.431Z,11.82
2019-05-18T04:11:27.046Z,11.68
2019-05-18T04:16:50.406Z,11.66
2019-05-18T04:22:13.422Z,11.73
2019-05-18T04:27:36.180Z,11.64
2019-05-18T04:32:59.642Z,11.65
2019-05-18T04:38:23.086Z,11.58
2019-05-18T04:43:46.520Z,11.69
2019-05-18T04:49:09.987Z,11.63
2019-05-18T04:54:33.513Z,11.79
2019-05-18T04:59:56.725Z,11.80
2019-05-18T05:05:20.092Z,11.74
2019-05-18T05:10:43.516Z,11.85
2019-05-18T05:16:06.778Z,11.86
2019-05-18T05:21:30.926Z,12.01
2019-05-18T05:26:54.382Z,12.11
2019-05-18T05:32:17.961Z,12.23
2019-05-18T05:37:41.175Z,12.30
2019-05-18T05:43:03.945Z,12.39
2019-05-18T05:48:27.726Z,12.46
2019-05-18T05:53:50.667Z,12.54
2019-05-18T05:59:14.088Z,12.68
2019-05-18T06:04:37.296Z,12.77
2019-05-18T06:10:00.853Z,12.97
2019-05-18T06:15:23.585Z,13.20
2019-05-18T06:20:51.498Z,13.36
2019-05-18T06:26:11.592Z,13.51
2019-05-18T06:31:35.224Z,13.63
2019-05-18T06:36:58.593Z,13.79
2019-05-18T06:42:22.484Z,13.92
2019-05-18T06:47:48.254Z,14.08
2019-05-18T06:53:09.516Z,14.28
2019-05-18T06:58:34.169Z,14.30
2019-05-18T07:03:57.088Z,14.52
2019-05-18T07:09:20.291Z,14.74
2019-05-18T07:14:43.118Z,14.86
2019-05-18T07:20:06.710Z,14.83
2019-05-18T07:25:29.556Z,15.10
2019-05-18T07:30:52.772Z,15.16
2019-05-18T07:36:16.632Z,15.21
2019-05-18T07:41:46.843Z,15.44
2019-05-18T07:47:04.438Z,15.66
2019-05-18T07:52:28.657Z,15.84
2019-05-18T07:57:52.585Z,16.08
2019-05-18T08:03:17.406Z,16.33
2019-05-18T08:08:40.063Z,16.34
2019-05-18T08:14:03.092Z,16.50
2019-05-18T08:19:26.891Z,16.85
2019-05-18T08:24:50.190Z,17.04
2019-05-18T08:30:13.549Z,17.16
2019-05-18T08:35:36.726Z,17.33
2019-05-18T08:40:59.351Z,17.50
2019-05-18T08:46:22.777Z,17.61
2019-05-18T08:51:46.232Z,17.65
2019-05-18T08:57:09.855Z,17.91
2019-05-18T09:02:32.636Z,18.12
2019-05-18T09:07:56.614Z,18.18
2019-05-18T09:13:19.633Z,18.32
2019-05-18T09:18:43.151Z,18.53
2019-05-18T09:24:06.473Z,18.48
2019-05-18T09:29:29.773Z,18.66
2019-05-18T09:34:53.131Z,19.06
2019-05-18T09:40:16.920Z,19.23
2019-05-18T09:45:40.467Z,19.55
2019-05-18T09:51:03.988Z,19.81
2019-05-18T09:56:27.033Z,19.85
2019-05-18T10:01:50.393Z,20.04
2019-05-18T10:07:13.696Z,20.41
2019-05-18T10:12:37.324Z,20.44
2019-05-18T10:18:00.666Z,20.42
2019-05-18T10:23:32.081Z,20.28
2019-05-18T10:28:55.631Z,20.37
2019-05-18T10:34:18.569Z,20.73
2019-05-18T10:39:41.911Z,20.91
2019-05-18T10:56:22.124Z,21.32
2019-05-18T11:01:45.659Z,21.89
2019-05-18T11:07:08.977Z,22.54
2019-05-18T11:12:36.411Z,23.02
2019-05-18T11:17:59.453Z,23.37
2019-05-18T11:23:22.865Z,23.37
2019-05-18T11:28:46.543Z,23.84
2019-05-18T11:34:10.219Z,24.73
2019-05-18T11:39:33.355Z,27.58
2019-05-18T11:44:56.836Z,26.34
2019-05-18T11:50:20.356Z,24.44
2019-05-18T11:55:43.601Z,25.43
2019-05-18T12:01:07.106Z,30.10
2019-05-18T12:06:30.300Z,30.74
2019-05-18T12:11:53.242Z,31.76
2019-05-18T12:17:16.661Z,31.56
2019-05-18T12:22:40.263Z,34.64
2019-05-18T12:28:03.865Z,35.64
2019-05-18T12:33:27.164Z,34.48
2019-05-18T12:38:50.915Z,36.19
2019-05-18T12:44:14.338Z,36.36
2019-05-18T12:49:38.044Z,30.47
2019-05-18T12:55:07.611Z,28.92
2019-05-18T13:00:31.596Z,33.41
2019-05-18T13:05:54.733Z,29.95
2019-05-18T13:11:18.323Z,26.47
2019-05-18T13:16:41.643Z,29.54
2019-05-18T13:22:05.181Z,31.37
2019-05-18T13:27:38.750Z,30.29
2019-05-18T13:32:52.794Z,27.25
2019-05-18T13:38:16.131Z,27.50
2019-05-18T13:43:39.312Z,27.68
2019-05-18T13:49:02.307Z,27.51
2019-05-18T13:54:25.797Z,27.30
2019-05-18T13:59:49.363Z,26.20
2019-05-18T14:05:14.072Z,26.13
2019-05-18T14:10:37.186Z,25.38
2019-05-18T14:16:00.164Z,25.44
2019-05-18T14:21:23.676Z,25.56
2019-05-18T14:26:46.536Z,25.51
2019-05-18T14:32:11.021Z,25.59
2019-05-18T14:37:34.469Z,25.39
2019-05-18T14:42:57.599Z,25.15
2019-05-18T14:48:21.088Z,25.07
2019-05-18T14:53:44.697Z,25.15
2019-05-18T14:59:08.057Z,25.81
2019-05-18T15:04:30.790Z,25.83
2019-05-18T15:09:53.991Z,24.65
2019-05-18T15:15:17.741Z,25.01
2019-05-18T15:20:40.638Z,25.24
2019-05-18T15:26:03.943Z,24.99
2019-05-18T15:31:27.609Z,24.90
2019-05-18T15:36:51.390Z,25.61
2019-05-18T15:42:14.436Z,25.19
2019-05-18T15:47:37.997Z,25.06
2019-05-18T15:53:00.510Z,24.54
2019-05-18T15:58:24.128Z,24.32
2019-05-18T16:03:47.971Z,24.03
2019-05-18T16:09:11.342Z,24.33
2019-05-18T16:14:34.318Z,24.68
2019-05-18T16:19:58.019Z,24.66
2019-05-18T16:25:21.484Z,25.11
2019-05-18T16:30:44.439Z,26.92
2019-05-18T16:36:07.494Z,26.46
2019-05-18T16:41:30.332Z,25.22
2019-05-18T16:46:53.856Z,23.87
2019-05-18T16:52:16.863Z,23.99
2019-05-18T16:57:40.171Z,23.80
2019-05-18T17:03:03.592Z,23.88
2019-05-18T17:08:26.432Z,23.85
2019-05-18T17:13:49.225Z,23.62
2019-05-18T17:19:12.601Z,23.82
2019-05-18T17:24:36.313Z,24.10
2019-05-18T17:29:59.517Z,23.61
2019-05-18T17:35:23.103Z,23.24
2019-05-18T17:40:46.624Z,23.19
2019-05-18T17:46:09.821Z,22.97
2019-05-18T17:51:33.152Z,22.92
2019-05-18T17:57:08.004Z,22.88
2019-05-18T18:02:21.388Z,22.68
2019-05-18T18:07:45.165Z,22.63
2019-05-18T18:13:09.627Z,22.49
2019-05-18T18:18:34.868Z,22.35
2019-05-18T18:23:57.331Z,22.18
2019-05-18T18:29:21.137Z,21.93
2019-05-18T18:34:43.872Z,21.89
2019-05-18T18:40:07.436Z,21.80
2019-05-18T18:45:30.901Z,21.60
2019-05-18T18:50:54.479Z,21.43
2019-05-18T18:56:17.863Z,21.14
2019-05-18T19:01:41.034Z,20.91
2019-05-18T19:07:04.356Z,20.65
2019-05-18T19:12:27.851Z,20.33
2019-05-18T19:17:51.053Z,20.14
2019-05-18T19:23:14.757Z,19.95
2019-05-18T19:28:38.049Z,19.77
2019-05-18T19:34:01.753Z,19.58
2019-05-18T19:39:25.008Z,19.54
2019-05-18T19:44:48.233Z,19.43
2019-05-18T19:50:12.043Z,19.38
2019-05-18T19:55:35.061Z,19.34
2019-05-18T20:00:58.643Z,19.27
2019-05-18T20:06:22.178Z,19.25
2019-05-18T20:11:45.362Z,19.21
2019-05-18T20:17:09.095Z,19.22
2019-05-18T20:22:32.167Z,19.21
2019-05-18T20:27:55.707Z,19.22
2019-05-18T20:33:19.550Z,19.25
2019-05-18T20:38:42.857Z,19.17
2019-05-18T20:44:06.358Z,19.03
2019-05-18T20:49:29.404Z,18.89
2019-05-18T20:54:52.757Z,18.73
2019-05-18T21:00:16.547Z,18.66
2019-05-18T21:05:39.981Z,18.66
2019-05-18T21:11:03.539Z,18.54
2019-05-18T21:16:27.159Z,18.50
2019-05-18T21:21:50.417Z,18.33
2019-05-18T21:27:13.535Z,18.20
2019-05-18T21:32:36.865Z,18.10
2019-05-18T21:37:59.615Z,18.06
2019-05-18T21:43:22.428Z,18.05
2019-05-18T21:48:45.991Z,17.96
2019-05-18T21:54:09.873Z,17.83
2019-05-18T21:59:33.172Z,17.69
2019-05-18T22:04:56.652Z,17.67
2019-05-18T22:10:25.766Z,17.63
2019-05-18T22:15:45.425Z,17.53
2019-05-18T22:21:09.346Z,17.49
2019-05-18T22:26:32.679Z,17.67
2019-05-18T22:31:56.802Z,17.36
2019-05-18T22:37:19.656Z,17.34
2019-05-18T22:42:43.164Z,17.27
2019-05-18T22:48:05.918Z,17.19
2019-05-18T22:53:29.458Z,17.09
2019-05-18T22:58:52.784Z,17.00
2019-05-18T23:04:16.228Z,16.96
2019-05-18T23:09:39.535Z,17.03
2019-05-18T23:15:03.157Z,17.03
2019-05-18T23:20:26.218Z,17.01
2019-05-18T23:25:49.757Z,16.96
2019-05-18T23:31:13.355Z,16.77
2019-05-18T23:36:37.007Z,16.75
2019-05-18T23:42:00.634Z,16.73
2019-05-18T23:47:23.526Z,16.69
2019-05-18T23:52:46.766Z,16.56
2019-05-18T23:58:10.307Z,16.64
